sensor_id;sensor_type;location;lat;lon;timestamp;pressure;altitude;pressure_sealevel;temperature;humidity
5679;BME280;2862;52.560;13.566;2023-04-04T00:04:01;102209.13;;;0.28;81.47
5679;BME280;2862;52.560;13.566;2023-04-04T00:14:04;102205.56;;;0.32;80.90
5679;BME280;2862;52.560;13.566;2023-04-04T00:24:09;102195.09;;;0.27;81.71
5679;BME280;2862;52.560;13.566;2023-04-04T00:34:13;102192.56;;;0.21;81.78
5679;BME280;2862;52.560;13.566;2023-04-04T00:44:18;102198.88;;;0.11;82.57
5679;BME280;2862;52.560;13.566;2023-04-04T00:54:21;102188.97;;;0.26;81.57
5679;BME280;2862;52.560;13.566;2023-04-04T01:04:26;102187.13;;;0.32;81.45
5679;BME280;2862;52.560;13.566;2023-04-04T01:14:30;102175.50;;;0.45;81.31
5679;BME280;2862;52.560;13.566;2023-04-04T01:24:34;102172.03;;;0.43;81.15
5679;BME280;2862;52.560;13.566;2023-04-04T01:34:43;102168.56;;;0.41;81.21
5679;BME280;2862;52.560;13.566;2023-04-04T01:44:53;102168.56;;;0.39;81.60
5679;BME280;2862;52.560;13.566;2023-04-04T01:55:05;102163.50;;;0.30;81.32
5679;BME280;2862;52.560;13.566;2023-04-04T02:05:09;102149.56;;;0.25;81.48
5679;BME280;2862;52.560;13.566;2023-04-04T02:15:15;102141.81;;;0.17;81.63
5679;BME280;2862;52.560;13.566;2023-04-04T02:25:18;102134.03;;;0.10;82.11
5679;BME280;2862;52.560;13.566;2023-04-04T02:35:23;102129.78;;;0.03;82.21
5679;BME280;2862;52.560;13.566;2023-04-04T02:45:27;102137.81;;;-0.05;82.85
5679;BME280;2862;52.560;13.566;2023-04-04T02:55:49;102126.72;;;-0.25;84.48
5679;BME280;2862;52.560;13.566;2023-04-04T03:05:53;102113.66;;;-0.29;84.14
5679;BME280;2862;52.560;13.566;2023-04-04T03:15:59;102107.06;;;-0.56;85.42
5679;BME280;2862;52.560;13.566;2023-04-04T03:26:12;102100.31;;;-0.75;86.78
5679;BME280;2862;52.560;13.566;2023-04-04T03:36:17;102088.34;;;-0.94;87.92
5679;BME280;2862;52.560;13.566;2023-04-04T03:46:23;102089.09;;;-0.86;87.97
5679;BME280;2862;52.560;13.566;2023-04-04T03:56:29;102084.75;;;-0.86;87.49
5679;BME280;2862;52.560;13.566;2023-04-04T04:06:37;102062.94;;;-0.92;87.58
5679;BME280;2862;52.560;13.566;2023-04-04T04:16:42;102071.72;;;-0.92;87.68
5679;BME280;2862;52.560;13.566;2023-04-04T04:26:49;102076.94;;;-0.90;87.70
5679;BME280;2862;52.560;13.566;2023-04-04T04:36:55;102068.91;;;-0.81;87.01
5679;BME280;2862;52.560;13.566;2023-04-04T04:47:02;102068.75;;;-0.69;86.61
5679;BME280;2862;52.560;13.566;2023-04-04T04:57:06;102081.03;;;1.91;76.66
5679;BME280;2862;52.560;13.566;2023-04-04T05:07:14;102062.84;;;7.86;52.79
5679;BME280;2862;52.560;13.566;2023-04-04T05:17:21;102059.44;;;11.10;42.86
5679;BME280;2862;52.560;13.566;2023-04-04T05:27:28;102067.63;;;14.01;35.73
5679;BME280;2862;52.560;13.566;2023-04-04T05:37:38;102068.38;;;14.95;33.05
5679;BME280;2862;52.560;13.566;2023-04-04T05:47:47;102059.53;;;16.95;29.92
5679;BME280;2862;52.560;13.566;2023-04-04T05:57:53;102071.84;;;17.97;27.12
5679;BME280;2862;52.560;13.566;2023-04-04T06:08:08;102066.84;;;18.88;28.14
5679;BME280;2862;52.560;13.566;2023-04-04T06:18:12;102070.81;;;19.67;25.50
5679;BME280;2862;52.560;13.566;2023-04-04T06:28:15;102068.41;;;19.81;25.06
5679;BME280;2862;52.560;13.566;2023-04-04T06:38:22;102074.81;;;21.87;22.70
5679;BME280;2862;52.560;13.566;2023-04-04T06:48:26;102080.56;;;21.59;23.58
5679;BME280;2862;52.560;13.566;2023-04-04T06:58:31;102077.78;;;21.43;22.11
5679;BME280;2862;52.560;13.566;2023-04-04T07:08:34;102068.53;;;18.42;28.07
5679;BME280;2862;52.560;13.566;2023-04-04T07:18:39;102064.09;;;16.94;29.18
5679;BME280;2862;52.560;13.566;2023-04-04T07:28:42;102072.38;;;13.13;35.35
5679;BME280;2862;52.560;13.566;2023-04-04T07:38:46;102057.72;;;12.81;35.98
5679;BME280;2862;52.560;13.566;2023-04-04T07:48:49;102066.28;;;11.28;38.58
5679;BME280;2862;52.560;13.566;2023-04-04T07:58:53;102065.59;;;10.83;41.55
5679;BME280;2862;52.560;13.566;2023-04-04T08:08:56;102056.31;;;10.60;40.93
5679;BME280;2862;52.560;13.566;2023-04-04T08:19:01;102059.59;;;9.91;40.69
5679;BME280;2862;52.560;13.566;2023-04-04T08:29:04;102051.19;;;9.37;41.42
5679;BME280;2862;52.560;13.566;2023-04-04T08:39:09;102040.81;;;8.68;44.51
5679;BME280;2862;52.560;13.566;2023-04-04T08:49:13;102039.19;;;8.15;43.02
5679;BME280;2862;52.560;13.566;2023-04-04T08:59:19;102038.59;;;8.76;42.68
5679;BME280;2862;52.560;13.566;2023-04-04T09:09:25;102025.69;;;9.00;43.97
5679;BME280;2862;52.560;13.566;2023-04-04T09:19:30;102026.69;;;8.33;42.28
5679;BME280;2862;52.560;13.566;2023-04-04T09:29:34;102019.59;;;8.82;41.04
5679;BME280;2862;52.560;13.566;2023-04-04T09:39:39;102027.16;;;7.37;42.50
5679;BME280;2862;52.560;13.566;2023-04-04T09:49:43;102025.72;;;7.30;40.23
5679;BME280;2862;52.560;13.566;2023-04-04T09:59:47;102007.75;;;8.21;39.94
5679;BME280;2862;52.560;13.566;2023-04-04T10:09:50;101999.56;;;8.09;39.89
5679;BME280;2862;52.560;13.566;2023-04-04T10:19:56;102007.25;;;7.63;37.42
5679;BME280;2862;52.560;13.566;2023-04-04T10:30:01;102002.28;;;6.83;41.38
5679;BME280;2862;52.560;13.566;2023-04-04T10:40:08;101992.16;;;7.44;42.41
5679;BME280;2862;52.560;13.566;2023-04-04T10:50:12;101990.84;;;7.53;41.12
5679;BME280;2862;52.560;13.566;2023-04-04T11:00:18;101966.44;;;8.13;39.13
5679;BME280;2862;52.560;13.566;2023-04-04T11:10:25;101954.38;;;8.23;37.68
5679;BME280;2862;52.560;13.566;2023-04-04T11:20:32;101951.00;;;8.52;36.73
5679;BME280;2862;52.560;13.566;2023-04-04T11:30:37;101939.44;;;8.20;37.11
5679;BME280;2862;52.560;13.566;2023-04-04T11:40:55;101919.81;;;7.88;39.46
5679;BME280;2862;52.560;13.566;2023-04-04T11:51:02;101913.09;;;8.79;38.65
5679;BME280;2862;52.560;13.566;2023-04-04T12:01:06;101899.84;;;8.13;37.32
5679;BME280;2862;52.560;13.566;2023-04-04T12:11:14;101889.25;;;7.95;36.69
5679;BME280;2862;52.560;13.566;2023-04-04T12:21:20;101885.88;;;8.88;35.23
5679;BME280;2862;52.560;13.566;2023-04-04T12:31:24;101875.88;;;8.13;36.29
5679;BME280;2862;52.560;13.566;2023-04-04T12:41:29;101847.53;;;8.91;35.73
5679;BME280;2862;52.560;13.566;2023-04-04T12:51:32;101834.97;;;9.37;34.88
5679;BME280;2862;52.560;13.566;2023-04-04T13:01:39;101824.19;;;9.24;34.80
5679;BME280;2862;52.560;13.566;2023-04-04T13:11:55;101829.31;;;8.20;35.98
5679;BME280;2862;52.560;13.566;2023-04-04T13:22:01;101794.56;;;8.69;33.73
5679;BME280;2862;52.560;13.566;2023-04-04T13:32:04;101796.25;;;8.86;34.70
5679;BME280;2862;52.560;13.566;2023-04-04T13:42:09;101788.91;;;8.59;34.01
5679;BME280;2862;52.560;13.566;2023-04-04T13:52:12;101770.75;;;8.66;33.65
5679;BME280;2862;52.560;13.566;2023-04-04T14:02:16;101767.00;;;8.07;34.15
5679;BME280;2862;52.560;13.566;2023-04-04T14:12:19;101756.09;;;7.95;34.02
5679;BME280;2862;52.560;13.566;2023-04-04T14:22:23;101751.81;;;8.09;34.38
5679;BME280;2862;52.560;13.566;2023-04-04T14:32:26;101744.22;;;8.48;35.13
5679;BME280;2862;52.560;13.566;2023-04-04T14:42:30;101737.56;;;7.94;34.63
5679;BME280;2862;52.560;13.566;2023-04-04T14:52:33;101736.06;;;7.72;34.79
5679;BME280;2862;52.560;13.566;2023-04-04T15:02:38;101726.38;;;7.71;35.79
5679;BME280;2862;52.560;13.566;2023-04-04T15:12:41;101729.91;;;7.39;37.42
5679;BME280;2862;52.560;13.566;2023-04-04T15:22:46;101720.00;;;7.74;37.77
5679;BME280;2862;52.560;13.566;2023-04-04T15:32:49;101704.28;;;7.85;36.94
5679;BME280;2862;52.560;13.566;2023-04-04T15:42:56;101704.91;;;7.75;37.53
5679;BME280;2862;52.560;13.566;2023-04-04T15:52:59;101705.59;;;7.78;38.80
5679;BME280;2862;52.560;13.566;2023-04-04T16:03:03;101697.59;;;7.62;37.60
5679;BME280;2862;52.560;13.566;2023-04-04T16:13:06;101696.81;;;7.44;38.79
5679;BME280;2862;52.560;13.566;2023-04-04T16:23:11;101691.81;;;7.23;39.62
5679;BME280;2862;52.560;13.566;2023-04-04T16:33:15;101686.69;;;7.35;39.62
5679;BME280;2862;52.560;13.566;2023-04-04T16:43:19;101681.22;;;7.21;40.88
5679;BME280;2862;52.560;13.566;2023-04-04T16:53:22;101668.50;;;7.10;41.97
5679;BME280;2862;52.560;13.566;2023-04-04T17:03:26;101675.22;;;6.84;43.80
5679;BME280;2862;52.560;13.566;2023-04-04T17:13:29;101666.31;;;6.68;45.36
5679;BME280;2862;52.560;13.566;2023-04-04T17:23:33;101666.09;;;6.55;46.50
5679;BME280;2862;52.560;13.566;2023-04-04T17:33:36;101672.41;;;6.70;47.21
5679;BME280;2862;52.560;13.566;2023-04-04T17:43:40;101661.88;;;6.69;47.75
5679;BME280;2862;52.560;13.566;2023-04-04T17:53:43;101663.53;;;6.54;47.94
5679;BME280;2862;52.560;13.566;2023-04-04T18:03:47;101661.94;;;6.67;48.38
5679;BME280;2862;52.560;13.566;2023-04-04T18:13:50;101657.16;;;6.74;49.01
5679;BME280;2862;52.560;13.566;2023-04-04T18:23:54;101661.00;;;6.68;49.02
5679;BME280;2862;52.560;13.566;2023-04-04T18:33:57;101667.41;;;6.64;49.08
5679;BME280;2862;52.560;13.566;2023-04-04T18:44:01;101670.78;;;6.50;49.08
5679;BME280;2862;52.560;13.566;2023-04-04T18:54:05;101675.88;;;6.37;50.00
5679;BME280;2862;52.560;13.566;2023-04-04T19:04:10;101670.78;;;6.16;50.12
5679;BME280;2862;52.560;13.566;2023-04-04T19:14:13;101672.25;;;5.85;51.77
5679;BME280;2862;52.560;13.566;2023-04-04T19:24:18;101670.81;;;5.59;52.87
5679;BME280;2862;52.560;13.566;2023-04-04T19:34:21;101672.03;;;5.33;53.62
5679;BME280;2862;52.560;13.566;2023-04-04T19:44:25;101671.53;;;5.06;54.33
5679;BME280;2862;52.560;13.566;2023-04-04T19:54:31;101678.50;;;4.88;55.14
5679;BME280;2862;52.560;13.566;2023-04-04T20:04:40;101677.38;;;4.73;55.23
5679;BME280;2862;52.560;13.566;2023-04-04T20:14:44;101672.81;;;4.77;54.77
5679;BME280;2862;52.560;13.566;2023-04-04T20:24:48;101676.97;;;4.62;53.71
5679;BME280;2862;52.560;13.566;2023-04-04T20:34:51;101672.47;;;4.44;53.13
5679;BME280;2862;52.560;13.566;2023-04-04T20:44:58;101672.59;;;4.41;53.36
5679;BME280;2862;52.560;13.566;2023-04-04T20:55:01;101670.19;;;4.35;54.07
5679;BME280;2862;52.560;13.566;2023-04-04T21:05:25;101671.97;;;4.14;56.50
5679;BME280;2862;52.560;13.566;2023-04-04T21:15:30;101672.72;;;3.95;56.57
5679;BME280;2862;52.560;13.566;2023-04-04T21:25:43;101671.41;;;3.84;57.24
5679;BME280;2862;52.560;13.566;2023-04-04T21:35:47;101684.97;;;3.76;57.06
5679;BME280;2862;52.560;13.566;2023-04-04T21:45:52;101679.47;;;3.59;56.63
5679;BME280;2862;52.560;13.566;2023-04-04T21:55:56;101674.59;;;3.48;56.30
5679;BME280;2862;52.560;13.566;2023-04-04T22:06:00;101673.22;;;3.38;56.73
5679;BME280;2862;52.560;13.566;2023-04-04T22:16:04;101663.97;;;3.26;56.82
5679;BME280;2862;52.560;13.566;2023-04-04T22:26:10;101664.84;;;3.27;57.29
5679;BME280;2862;52.560;13.566;2023-04-04T22:36:14;101653.63;;;3.20;57.95
5679;BME280;2862;52.560;13.566;2023-04-04T22:46:19;101655.34;;;3.21;57.10
5679;BME280;2862;52.560;13.566;2023-04-04T22:56:22;101643.91;;;2.97;57.38
5679;BME280;2862;52.560;13.566;2023-04-04T23:06:27;101641.09;;;2.78;57.10
5679;BME280;2862;52.560;13.566;2023-04-04T23:16:31;101631.63;;;2.73;58.55
5679;BME280;2862;52.560;13.566;2023-04-04T23:26:37;101623.13;;;2.64;59.26
5679;BME280;2862;52.560;13.566;2023-04-04T23:36:40;101613.97;;;2.50;59.36
5679;BME280;2862;52.560;13.566;2023-04-04T23:46:45;101608.84;;;2.45;59.32
5679;BME280;2862;52.560;13.566;2023-04-04T23:56:48;101607.50;;;2.33;59.04
